sensor_id;sensor_type;location;lat;lon;timestamp;P1;durP1;ratioP1;P2;durP2;ratioP2
64459;SDS011;50828;53.756;21.140;2024-01-11T00:03:16;20.40;;;8.80;;
64459;SDS011;50828;53.756;21.140;2024-01-11T00:08:24;16.10;;;7.30;;
64459;SDS011;50828;53.756;21.140;2024-01-11T00:13:32;15.50;;;6.60;;
64459;SDS011;50828;53.756;21.140;2024-01-11T00:18:40;13.80;;;7.00;;
64459;SDS011;50828;53.756;21.140;2024-01-11T00:23:49;16.20;;;6.30;;
64459;SDS011;50828;53.756;21.140;2024-01-11T00:28:57;14.90;;;7.10;;
64459;SDS011;50828;53.756;21.140;2024-01-11T00:34:06;16.40;;;7.10;;
64459;SDS011;50828;53.756;21.140;2024-01-11T00:39:14;16.50;;;7.70;;
64459;SDS011;50828;53.756;21.140;2024-01-11T00:44:22;16.60;;;7.50;;
64459;SDS011;50828;53.756;21.140;2024-01-11T00:49:30;11.00;;;5.90;;
64459;SDS011;50828;53.756;21.140;2024-01-11T00:54:38;13.80;;;6.30;;
64459;SDS011;50828;53.756;21.140;2024-01-11T00:59:45;17.20;;;7.50;;
64459;SDS011;50828;53.756;21.140;2024-01-11T01:04:53;16.60;;;6.80;;
64459;SDS011;50828;53.756;21.140;2024-01-11T01:10:01;11.60;;;6.10;;
64459;SDS011;50828;53.756;21.140;2024-01-11T01:15:09;14.50;;;6.20;;
64459;SDS011;50828;53.756;21.140;2024-01-11T01:20:18;15.90;;;7.30;;
64459;SDS011;50828;53.756;21.140;2024-01-11T01:25:26;12.50;;;5.90;;
64459;SDS011;50828;53.756;21.140;2024-01-11T01:30:34;13.70;;;6.10;;
64459;SDS011;50828;53.756;21.140;2024-01-11T01:35:42;12.10;;;6.10;;
64459;SDS011;50828;53.756;21.140;2024-01-11T01:40:50;15.00;;;5.70;;
64459;SDS011;50828;53.756;21.140;2024-01-11T01:45:58;13.30;;;6.30;;
64459;SDS011;50828;53.756;21.140;2024-01-11T01:51:06;14.40;;;6.80;;
64459;SDS011;50828;53.756;21.140;2024-01-11T01:56:14;17.00;;;6.80;;
64459;SDS011;50828;53.756;21.140;2024-01-11T02:01:22;12.60;;;6.20;;
64459;SDS011;50828;53.756;21.140;2024-01-11T02:06:31;13.50;;;6.20;;
64459;SDS011;50828;53.756;21.140;2024-01-11T02:11:41;15.90;;;7.00;;
64459;SDS011;50828;53.756;21.140;2024-01-11T02:16:49;15.10;;;7.20;;
64459;SDS011;50828;53.756;21.140;2024-01-11T02:21:58;16.00;;;7.00;;
64459;SDS011;50828;53.756;21.140;2024-01-11T02:27:10;15.30;;;7.80;;
64459;SDS011;50828;53.756;21.140;2024-01-11T02:32:18;15.70;;;6.90;;
64459;SDS011;50828;53.756;21.140;2024-01-11T02:37:27;14.20;;;7.00;;
64459;SDS011;50828;53.756;21.140;2024-01-11T02:42:35;14.60;;;7.30;;
64459;SDS011;50828;53.756;21.140;2024-01-11T02:47:43;15.00;;;7.70;;
64459;SDS011;50828;53.756;21.140;2024-01-11T02:52:51;16.00;;;7.80;;
64459;SDS011;50828;53.756;21.140;2024-01-11T02:57:59;15.40;;;7.90;;
64459;SDS011;50828;53.756;21.140;2024-01-11T03:03:07;15.10;;;7.20;;
64459;SDS011;50828;53.756;21.140;2024-01-11T03:08:15;17.00;;;7.90;;
64459;SDS011;50828;53.756;21.140;2024-01-11T03:13:23;15.40;;;7.60;;
64459;SDS011;50828;53.756;21.140;2024-01-11T03:18:31;16.90;;;8.40;;
64459;SDS011;50828;53.756;21.140;2024-01-11T03:23:39;17.70;;;8.60;;
64459;SDS011;50828;53.756;21.140;2024-01-11T03:28:47;15.80;;;7.00;;
64459;SDS011;50828;53.756;21.140;2024-01-11T03:33:55;12.30;;;7.00;;
64459;SDS011;50828;53.756;21.140;2024-01-11T03:39:03;12.10;;;7.00;;
64459;SDS011;50828;53.756;21.140;2024-01-11T03:44:11;15.50;;;7.20;;
64459;SDS011;50828;53.756;21.140;2024-01-11T03:49:19;12.30;;;7.20;;
64459;SDS011;50828;53.756;21.140;2024-01-11T03:54:27;12.00;;;7.00;;
64459;SDS011;50828;53.756;21.140;2024-01-11T03:59:35;15.50;;;7.10;;
64459;SDS011;50828;53.756;21.140;2024-01-11T04:04:43;11.60;;;6.30;;
64459;SDS011;50828;53.756;21.140;2024-01-11T04:09:51;15.20;;;6.40;;
64459;SDS011;50828;53.756;21.140;2024-01-11T04:14:58;8.00;;;5.30;;
64459;SDS011;50828;53.756;21.140;2024-01-11T04:20:07;9.10;;;5.60;;
64459;SDS011;50828;53.756;21.140;2024-01-11T04:25:17;9.30;;;5.20;;
64459;SDS011;50828;53.756;21.140;2024-01-11T04:30:25;10.30;;;5.80;;
64459;SDS011;50828;53.756;21.140;2024-01-11T04:35:33;10.10;;;5.60;;
64459;SDS011;50828;53.756;21.140;2024-01-11T04:40:41;8.10;;;5.20;;
64459;SDS011;50828;53.756;21.140;2024-01-11T04:45:49;10.10;;;4.50;;
64459;SDS011;50828;53.756;21.140;2024-01-11T04:50:57;7.80;;;4.30;;
64459;SDS011;50828;53.756;21.140;2024-01-11T04:56:05;12.70;;;4.90;;
64459;SDS011;50828;53.756;21.140;2024-01-11T05:01:14;8.50;;;4.60;;
64459;SDS011;50828;53.756;21.140;2024-01-11T05:06:23;6.10;;;4.00;;
64459;SDS011;50828;53.756;21.140;2024-01-11T05:11:32;6.80;;;3.60;;
64459;SDS011;50828;53.756;21.140;2024-01-11T05:16:41;8.90;;;4.00;;
64459;SDS011;50828;53.756;21.140;2024-01-11T05:21:49;6.90;;;4.40;;
64459;SDS011;50828;53.756;21.140;2024-01-11T05:26:57;6.50;;;3.90;;
64459;SDS011;50828;53.756;21.140;2024-01-11T05:32:05;5.90;;;3.60;;
64459;SDS011;50828;53.756;21.140;2024-01-11T05:37:14;8.80;;;4.10;;
64459;SDS011;50828;53.756;21.140;2024-01-11T05:42:23;5.90;;;3.50;;
64459;SDS011;50828;53.756;21.140;2024-01-11T05:47:30;7.90;;;3.90;;
64459;SDS011;50828;53.756;21.140;2024-01-11T05:52:38;8.10;;;3.90;;
64459;SDS011;50828;53.756;21.140;2024-01-11T05:57:47;5.90;;;3.60;;
64459;SDS011;50828;53.756;21.140;2024-01-11T06:02:55;5.70;;;3.50;;
64459;SDS011;50828;53.756;21.140;2024-01-11T06:08:04;6.90;;;3.80;;
64459;SDS011;50828;53.756;21.140;2024-01-11T06:13:13;8.40;;;4.20;;
64459;SDS011;50828;53.756;21.140;2024-01-11T06:18:21;7.40;;;4.00;;
64459;SDS011;50828;53.756;21.140;2024-01-11T06:23:30;7.00;;;3.90;;
64459;SDS011;50828;53.756;21.140;2024-01-11T06:28:38;10.00;;;3.90;;
64459;SDS011;50828;53.756;21.140;2024-01-11T06:33:46;7.90;;;3.30;;
64459;SDS011;50828;53.756;21.140;2024-01-11T06:38:55;5.70;;;3.70;;
64459;SDS011;50828;53.756;21.140;2024-01-11T06:44:03;7.50;;;3.60;;
64459;SDS011;50828;53.756;21.140;2024-01-11T06:49:12;7.00;;;3.80;;
64459;SDS011;50828;53.756;21.140;2024-01-11T06:54:20;6.70;;;3.40;;
64459;SDS011;50828;53.756;21.140;2024-01-11T06:59:28;8.70;;;3.40;;
64459;SDS011;50828;53.756;21.140;2024-01-11T07:04:36;7.80;;;3.90;;
64459;SDS011;50828;53.756;21.140;2024-01-11T07:09:50;7.50;;;2.90;;
64459;SDS011;50828;53.756;21.140;2024-01-11T07:14:59;6.20;;;3.50;;
64459;SDS011;50828;53.756;21.140;2024-01-11T07:20:13;6.30;;;3.40;;
64459;SDS011;50828;53.756;21.140;2024-01-11T07:25:24;5.80;;;3.30;;
64459;SDS011;50828;53.756;21.140;2024-01-11T07:30:33;7.00;;;3.30;;
64459;SDS011;50828;53.756;21.140;2024-01-11T07:35:41;9.80;;;3.60;;
64459;SDS011;50828;53.756;21.140;2024-01-11T07:40:50;9.80;;;2.90;;
64459;SDS011;50828;53.756;21.140;2024-01-11T07:45:58;9.00;;;3.20;;
64459;SDS011;50828;53.756;21.140;2024-01-11T07:51:09;8.20;;;3.30;;
64459;SDS011;50828;53.756;21.140;2024-01-11T07:56:17;4.70;;;2.80;;
64459;SDS011;50828;53.756;21.140;2024-01-11T08:01:27;8.20;;;3.40;;
64459;SDS011;50828;53.756;21.140;2024-01-11T08:06:35;8.10;;;3.70;;
64459;SDS011;50828;53.756;21.140;2024-01-11T08:11:44;11.20;;;3.80;;
64459;SDS011;50828;53.756;21.140;2024-01-11T08:16:55;10.40;;;4.30;;
64459;SDS011;50828;53.756;21.140;2024-01-11T08:22:03;9.90;;;3.90;;
64459;SDS011;50828;53.756;21.140;2024-01-11T08:27:11;9.50;;;5.20;;
64459;SDS011;50828;53.756;21.140;2024-01-11T08:32:21;10.40;;;3.30;;
64459;SDS011;50828;53.756;21.140;2024-01-11T08:37:35;7.30;;;3.70;;
64459;SDS011;50828;53.756;21.140;2024-01-11T08:42:42;9.70;;;3.90;;
64459;SDS011;50828;53.756;21.140;2024-01-11T08:47:50;9.70;;;3.40;;
64459;SDS011;50828;53.756;21.140;2024-01-11T08:52:58;6.70;;;3.00;;
64459;SDS011;50828;53.756;21.140;2024-01-11T08:58:06;6.90;;;3.20;;
64459;SDS011;50828;53.756;21.140;2024-01-11T09:03:15;7.90;;;3.00;;
64459;SDS011;50828;53.756;21.140;2024-01-11T09:08:23;4.80;;;2.30;;
64459;SDS011;50828;53.756;21.140;2024-01-11T09:13:31;5.90;;;2.60;;
64459;SDS011;50828;53.756;21.140;2024-01-11T09:18:40;5.50;;;2.50;;
64459;SDS011;50828;53.756;21.140;2024-01-11T09:23:49;4.60;;;2.30;;
64459;SDS011;50828;53.756;21.140;2024-01-11T09:28:57;7.40;;;3.70;;
64459;SDS011;50828;53.756;21.140;2024-01-11T09:34:07;9.70;;;3.20;;
64459;SDS011;50828;53.756;21.140;2024-01-11T09:39:16;9.70;;;4.80;;
64459;SDS011;50828;53.756;21.140;2024-01-11T09:44:24;9.80;;;3.90;;
64459;SDS011;50828;53.756;21.140;2024-01-11T09:49:34;5.20;;;3.10;;
64459;SDS011;50828;53.756;21.140;2024-01-11T09:54:45;6.20;;;3.60;;
64459;SDS011;50828;53.756;21.140;2024-01-11T09:59:54;5.60;;;2.70;;
64459;SDS011;50828;53.756;21.140;2024-01-11T10:05:04;5.50;;;2.50;;
64459;SDS011;50828;53.756;21.140;2024-01-11T10:10:15;5.90;;;2.50;;
64459;SDS011;50828;53.756;21.140;2024-01-11T10:15:24;4.70;;;2.40;;
64459;SDS011;50828;53.756;21.140;2024-01-11T10:20:32;4.10;;;2.40;;
64459;SDS011;50828;53.756;21.140;2024-01-11T10:25:42;3.90;;;2.50;;
64459;SDS011;50828;53.756;21.140;2024-01-11T10:30:52;3.70;;;1.80;;
64459;SDS011;50828;53.756;21.140;2024-01-11T10:36:00;2.80;;;1.80;;
64459;SDS011;50828;53.756;21.140;2024-01-11T10:41:10;4.10;;;2.10;;
64459;SDS011;50828;53.756;21.140;2024-01-11T10:46:25;3.50;;;1.90;;
64459;SDS011;50828;53.756;21.140;2024-01-11T10:51:35;4.90;;;2.90;;
64459;SDS011;50828;53.756;21.140;2024-01-11T10:56:46;4.00;;;2.80;;
64459;SDS011;50828;53.756;21.140;2024-01-11T11:01:56;2.70;;;1.90;;
64459;SDS011;50828;53.756;21.140;2024-01-11T11:07:11;3.20;;;2.00;;
64459;SDS011;50828;53.756;21.140;2024-01-11T11:12:21;2.50;;;1.60;;
64459;SDS011;50828;53.756;21.140;2024-01-11T11:17:31;2.50;;;1.80;;
64459;SDS011;50828;53.756;21.140;2024-01-11T11:22:49;2.90;;;1.90;;
64459;SDS011;50828;53.756;21.140;2024-01-11T11:28:22;2.40;;;1.70;;
64459;SDS011;50828;53.756;21.140;2024-01-11T11:33:32;3.60;;;1.80;;
64459;SDS011;50828;53.756;21.140;2024-01-11T11:38:41;3.70;;;1.70;;
64459;SDS011;50828;53.756;21.140;2024-01-11T11:43:51;2.90;;;1.70;;
64459;SDS011;50828;53.756;21.140;2024-01-11T11:49:00;3.20;;;1.80;;
64459;SDS011;50828;53.756;21.140;2024-01-11T11:54:08;3.80;;;1.90;;
64459;SDS011;50828;53.756;21.140;2024-01-11T11:59:18;3.50;;;2.10;;
64459;SDS011;50828;53.756;21.140;2024-01-11T12:04:28;2.90;;;1.70;;
64459;SDS011;50828;53.756;21.140;2024-01-11T12:09:37;3.40;;;1.50;;
64459;SDS011;50828;53.756;21.140;2024-01-11T12:14:45;3.80;;;2.00;;
64459;SDS011;50828;53.756;21.140;2024-01-11T12:19:54;3.80;;;2.00;;
64459;SDS011;50828;53.756;21.140;2024-01-11T12:25:04;6.60;;;3.00;;
64459;SDS011;50828;53.756;21.140;2024-01-11T12:30:13;10.50;;;3.50;;
64459;SDS011;50828;53.756;21.140;2024-01-11T12:35:24;7.00;;;3.60;;
64459;SDS011;50828;53.756;21.140;2024-01-11T12:40:33;6.00;;;3.50;;
64459;SDS011;50828;53.756;21.140;2024-01-11T12:45:43;7.80;;;3.00;;
64459;SDS011;50828;53.756;21.140;2024-01-11T12:50:52;4.60;;;2.30;;
64459;SDS011;50828;53.756;21.140;2024-01-11T12:56:18;5.30;;;3.10;;
64459;SDS011;50828;53.756;21.140;2024-01-11T13:01:27;9.70;;;4.30;;
64459;SDS011;50828;53.756;21.140;2024-01-11T13:06:36;16.10;;;5.20;;
64459;SDS011;50828;53.756;21.140;2024-01-11T13:11:45;11.20;;;4.60;;
64459;SDS011;50828;53.756;21.140;2024-01-11T13:16:54;9.40;;;3.80;;
64459;SDS011;50828;53.756;21.140;2024-01-11T13:22:03;5.90;;;3.20;;
64459;SDS011;50828;53.756;21.140;2024-01-11T13:27:11;6.70;;;2.60;;
64459;SDS011;50828;53.756;21.140;2024-01-11T13:32:19;5.10;;;2.50;;
64459;SDS011;50828;53.756;21.140;2024-01-11T13:37:28;8.50;;;3.30;;
64459;SDS011;50828;53.756;21.140;2024-01-11T13:42:36;17.90;;;7.90;;
64459;SDS011;50828;53.756;21.140;2024-01-11T13:47:45;35.20;;;11.50;;
64459;SDS011;50828;53.756;21.140;2024-01-11T13:52:54;73.10;;;17.90;;
64459;SDS011;50828;53.756;21.140;2024-01-11T13:58:03;134.60;;;27.70;;
64459;SDS011;50828;53.756;21.140;2024-01-11T14:03:12;110.40;;;25.10;;
64459;SDS011;50828;53.756;21.140;2024-01-11T14:08:23;107.80;;;23.40;;
64459;SDS011;50828;53.756;21.140;2024-01-11T14:13:32;189.10;;;41.10;;
64459;SDS011;50828;53.756;21.140;2024-01-11T14:18:44;149.60;;;30.40;;
64459;SDS011;50828;53.756;21.140;2024-01-11T14:23:54;118.90;;;27.10;;
64459;SDS011;50828;53.756;21.140;2024-01-11T14:29:02;116.50;;;28.80;;
64459;SDS011;50828;53.756;21.140;2024-01-11T14:34:11;130.80;;;32.30;;
64459;SDS011;50828;53.756;21.140;2024-01-11T14:39:18;151.40;;;37.10;;
64459;SDS011;50828;53.756;21.140;2024-01-11T14:44:28;101.30;;;27.00;;
64459;SDS011;50828;53.756;21.140;2024-01-11T14:49:37;76.30;;;19.90;;
64459;SDS011;50828;53.756;21.140;2024-01-11T14:54:46;67.00;;;19.20;;
64459;SDS011;50828;53.756;21.140;2024-01-11T14:59:55;160.60;;;33.90;;
64459;SDS011;50828;53.756;21.140;2024-01-11T15:05:03;137.40;;;29.10;;
64459;SDS011;50828;53.756;21.140;2024-01-11T15:10:13;116.50;;;29.50;;
64459;SDS011;50828;53.756;21.140;2024-01-11T15:15:21;106.70;;;27.20;;
64459;SDS011;50828;53.756;21.140;2024-01-11T15:20:30;172.70;;;35.50;;
64459;SDS011;50828;53.756;21.140;2024-01-11T15:25:37;202.90;;;46.00;;
64459;SDS011;50828;53.756;21.140;2024-01-11T15:30:47;197.90;;;47.00;;
64459;SDS011;50828;53.756;21.140;2024-01-11T15:35:55;160.30;;;39.60;;
64459;SDS011;50828;53.756;21.140;2024-01-11T15:41:05;176.70;;;41.60;;
64459;SDS011;50828;53.756;21.140;2024-01-11T15:46:13;100.90;;;28.20;;
64459;SDS011;50828;53.756;21.140;2024-01-11T15:51:23;95.00;;;24.80;;
64459;SDS011;50828;53.756;21.140;2024-01-11T15:56:32;83.70;;;22.10;;
64459;SDS011;50828;53.756;21.140;2024-01-11T16:01:40;139.40;;;37.70;;
64459;SDS011;50828;53.756;21.140;2024-01-11T16:07:04;92.30;;;25.40;;
64459;SDS011;50828;53.756;21.140;2024-01-11T16:12:11;65.90;;;21.10;;
64459;SDS011;50828;53.756;21.140;2024-01-11T16:17:20;50.70;;;17.10;;
64459;SDS011;50828;53.756;21.140;2024-01-11T16:22:28;37.20;;;13.10;;
64459;SDS011;50828;53.756;21.140;2024-01-11T16:27:37;41.90;;;13.70;;
64459;SDS011;50828;53.756;21.140;2024-01-11T16:32:45;71.30;;;19.40;;
64459;SDS011;50828;53.756;21.140;2024-01-11T16:37:52;88.60;;;25.40;;
64459;SDS011;50828;53.756;21.140;2024-01-11T16:43:00;124.90;;;31.10;;
64459;SDS011;50828;53.756;21.140;2024-01-11T16:48:08;132.60;;;33.90;;
64459;SDS011;50828;53.756;21.140;2024-01-11T16:53:21;116.10;;;29.70;;
64459;SDS011;50828;53.756;21.140;2024-01-11T16:58:29;125.40;;;30.30;;
64459;SDS011;50828;53.756;21.140;2024-01-11T17:03:37;145.40;;;36.80;;
64459;SDS011;50828;53.756;21.140;2024-01-11T17:08:44;161.90;;;38.80;;
64459;SDS011;50828;53.756;21.140;2024-01-11T17:13:52;149.10;;;34.10;;
64459;SDS011;50828;53.756;21.140;2024-01-11T17:19:00;119.20;;;29.40;;
64459;SDS011;50828;53.756;21.140;2024-01-11T17:24:07;91.50;;;22.40;;
64459;SDS011;50828;53.756;21.140;2024-01-11T17:29:15;79.80;;;22.50;;
64459;SDS011;50828;53.756;21.140;2024-01-11T17:34:23;77.60;;;22.80;;
64459;SDS011;50828;53.756;21.140;2024-01-11T17:39:31;67.40;;;20.10;;
64459;SDS011;50828;53.756;21.140;2024-01-11T17:44:39;55.40;;;18.50;;
64459;SDS011;50828;53.756;21.140;2024-01-11T17:49:47;45.30;;;15.70;;
64459;SDS011;50828;53.756;21.140;2024-01-11T17:54:55;38.30;;;14.60;;
64459;SDS011;50828;53.756;21.140;2024-01-11T18:00:03;109.00;;;27.00;;
64459;SDS011;50828;53.756;21.140;2024-01-11T18:05:13;144.80;;;32.10;;
64459;SDS011;50828;53.756;21.140;2024-01-11T18:10:21;159.90;;;31.30;;
64459;SDS011;50828;53.756;21.140;2024-01-11T18:15:28;167.40;;;30.50;;
64459;SDS011;50828;53.756;21.140;2024-01-11T18:20:36;125.90;;;25.40;;
64459;SDS011;50828;53.756;21.140;2024-01-11T18:25:43;78.60;;;19.70;;
64459;SDS011;50828;53.756;21.140;2024-01-11T18:30:51;54.10;;;14.50;;
64459;SDS011;50828;53.756;21.140;2024-01-11T18:35:58;52.80;;;12.60;;
64459;SDS011;50828;53.756;21.140;2024-01-11T18:41:06;75.50;;;17.40;;
64459;SDS011;50828;53.756;21.140;2024-01-11T18:46:14;106.80;;;26.00;;
64459;SDS011;50828;53.756;21.140;2024-01-11T18:51:24;129.20;;;30.60;;
64459;SDS011;50828;53.756;21.140;2024-01-11T18:56:33;123.50;;;33.30;;
64459;SDS011;50828;53.756;21.140;2024-01-11T19:01:44;133.10;;;35.90;;
64459;SDS011;50828;53.756;21.140;2024-01-11T19:06:52;121.40;;;32.20;;
64459;SDS011;50828;53.756;21.140;2024-01-11T19:12:02;130.60;;;32.80;;
64459;SDS011;50828;53.756;21.140;2024-01-11T19:17:11;131.40;;;32.30;;
64459;SDS011;50828;53.756;21.140;2024-01-11T19:22:18;205.30;;;51.10;;
64459;SDS011;50828;53.756;21.140;2024-01-11T19:27:26;410.30;;;99.40;;
64459;SDS011;50828;53.756;21.140;2024-01-11T19:32:34;449.60;;;115.40;;
64459;SDS011;50828;53.756;21.140;2024-01-11T19:37:42;379.60;;;88.80;;
64459;SDS011;50828;53.756;21.140;2024-01-11T19:42:50;248.90;;;59.20;;
64459;SDS011;50828;53.756;21.140;2024-01-11T19:47:57;228.20;;;53.10;;
64459;SDS011;50828;53.756;21.140;2024-01-11T19:53:05;215.80;;;52.30;;
64459;SDS011;50828;53.756;21.140;2024-01-11T19:58:13;257.70;;;55.60;;
64459;SDS011;50828;53.756;21.140;2024-01-11T20:03:20;134.50;;;32.10;;
64459;SDS011;50828;53.756;21.140;2024-01-11T20:08:28;141.60;;;29.20;;
64459;SDS011;50828;53.756;21.140;2024-01-11T20:13:36;151.50;;;31.70;;
64459;SDS011;50828;53.756;21.140;2024-01-11T20:18:43;125.80;;;27.10;;
64459;SDS011;50828;53.756;21.140;2024-01-11T20:23:51;98.80;;;22.60;;
64459;SDS011;50828;53.756;21.140;2024-01-11T20:28:59;163.40;;;33.80;;
64459;SDS011;50828;53.756;21.140;2024-01-11T20:34:06;113.30;;;27.00;;
64459;SDS011;50828;53.756;21.140;2024-01-11T20:39:17;69.80;;;16.90;;
64459;SDS011;50828;53.756;21.140;2024-01-11T20:44:24;58.40;;;14.40;;
64459;SDS011;50828;53.756;21.140;2024-01-11T20:49:32;106.10;;;24.10;;
64459;SDS011;50828;53.756;21.140;2024-01-11T20:54:39;93.30;;;21.70;;
64459;SDS011;50828;53.756;21.140;2024-01-11T20:59:47;56.80;;;13.20;;
64459;SDS011;50828;53.756;21.140;2024-01-11T21:04:54;29.20;;;7.60;;
64459;SDS011;50828;53.756;21.140;2024-01-11T21:10:02;16.00;;;4.50;;
64459;SDS011;50828;53.756;21.140;2024-01-11T21:15:11;29.90;;;7.40;;
64459;SDS011;50828;53.756;21.140;2024-01-11T21:20:19;21.00;;;5.80;;
64459;SDS011;50828;53.756;21.140;2024-01-11T21:25:27;57.00;;;15.40;;
64459;SDS011;50828;53.756;21.140;2024-01-11T21:30:34;30.30;;;8.30;;
64459;SDS011;50828;53.756;21.140;2024-01-11T21:35:41;11.80;;;3.30;;
64459;SDS011;50828;53.756;21.140;2024-01-11T21:40:49;8.00;;;2.70;;
64459;SDS011;50828;53.756;21.140;2024-01-11T21:46:13;6.90;;;2.10;;
64459;SDS011;50828;53.756;21.140;2024-01-11T21:51:39;6.90;;;2.40;;
64459;SDS011;50828;53.756;21.140;2024-01-11T21:56:46;5.00;;;1.60;;
64459;SDS011;50828;53.756;21.140;2024-01-11T22:01:54;19.00;;;5.10;;
64459;SDS011;50828;53.756;21.140;2024-01-11T22:07:02;10.60;;;2.60;;
64459;SDS011;50828;53.756;21.140;2024-01-11T22:12:12;10.30;;;2.10;;
64459;SDS011;50828;53.756;21.140;2024-01-11T22:17:22;6.50;;;1.70;;
64459;SDS011;50828;53.756;21.140;2024-01-11T22:22:30;5.00;;;1.70;;
64459;SDS011;50828;53.756;21.140;2024-01-11T22:27:38;6.00;;;1.80;;
64459;SDS011;50828;53.756;21.140;2024-01-11T22:32:48;2.50;;;1.00;;
64459;SDS011;50828;53.756;21.140;2024-01-11T22:38:15;3.70;;;0.90;;
64459;SDS011;50828;53.756;21.140;2024-01-11T22:43:24;22.20;;;6.10;;
64459;SDS011;50828;53.756;21.140;2024-01-11T22:48:32;42.90;;;14.50;;
64459;SDS011;50828;53.756;21.140;2024-01-11T22:53:40;24.90;;;9.70;;
64459;SDS011;50828;53.756;21.140;2024-01-11T22:58:48;16.10;;;5.40;;
64459;SDS011;50828;53.756;21.140;2024-01-11T23:03:56;21.40;;;7.80;;
64459;SDS011;50828;53.756;21.140;2024-01-11T23:09:04;20.00;;;8.10;;
64459;SDS011;50828;53.756;21.140;2024-01-11T23:14:14;12.00;;;5.80;;
64459;SDS011;50828;53.756;21.140;2024-01-11T23:19:22;13.00;;;3.90;;
64459;SDS011;50828;53.756;21.140;2024-01-11T23:24:31;7.40;;;2.60;;
64459;SDS011;50828;53.756;21.140;2024-01-11T23:29:38;8.80;;;3.50;;
64459;SDS011;50828;53.756;21.140;2024-01-11T23:34:46;12.40;;;5.00;;
64459;SDS011;50828;53.756;21.140;2024-01-11T23:39:54;10.00;;;3.80;;
64459;SDS011;50828;53.756;21.140;2024-01-11T23:45:02;13.60;;;4.10;;
64459;SDS011;50828;53.756;21.140;2024-01-11T23:50:11;16.30;;;4.50;;
64459;SDS011;50828;53.756;21.140;2024-01-11T23:55:19;24.40;;;7.00;;
